createdAt,value
2018-01-23T00:00:15.759Z,1.06
2018-01-23T00:02:45.526Z,1.07
2018-01-23T00:05:15.557Z,1.04
2018-01-23T00:07:45.614Z,1.03
2018-01-23T00:10:15.501Z,1.01
2018-01-23T00:12:45.406Z,0.94
2018-01-23T00:15:15.345Z,0.87
2018-01-23T00:17:45.132Z,0.89
2018-01-23T00:20:15.090Z,0.93
2018-01-23T00:22:45.077Z,0.93
2018-01-23T00:25:15.927Z,1.00
2018-01-23T00:27:45.852Z,0.96
2018-01-23T00:30:15.490Z,1.09
2018-01-23T00:32:45.468Z,1.10
2018-01-23T00:35:15.324Z,1.13
2018-01-23T00:37:45.452Z,1.14
2018-01-23T00:40:15.437Z,1.16
2018-01-23T00:42:45.391Z,1.17
2018-01-23T00:45:15.304Z,1.13
2018-01-23T00:47:45.238Z,1.21
2018-01-23T00:50:15.233Z,1.24
2018-01-23T00:52:45.157Z,1.18
2018-01-23T00:55:15.677Z,1.27
2018-01-23T00:57:45.651Z,1.23
2018-01-23T01:00:15.368Z,1.30
2018-01-23T01:02:45.477Z,1.30
2018-01-23T01:05:15.427Z,1.35
2018-01-23T01:07:45.481Z,1.39
2018-01-23T01:10:15.658Z,1.32
2018-01-23T01:12:45.881Z,1.37
2018-01-23T01:15:15.671Z,1.40
2018-01-23T01:17:45.417Z,1.39
2018-01-23T01:20:15.448Z,1.37
2018-01-23T01:22:45.316Z,1.35
2018-01-23T01:25:15.236Z,1.30
2018-01-23T01:27:45.168Z,1.31
2018-01-23T01:30:14.983Z,1.27
2018-01-23T01:32:44.949Z,1.28
2018-01-23T01:35:14.832Z,1.36
2018-01-23T01:37:44.742Z,1.47
2018-01-23T01:40:18.392Z,1.48
2018-01-23T01:42:48.264Z,1.44
2018-01-23T01:45:18.347Z,1.44
2018-01-23T01:47:54.728Z,1.42
2018-01-23T01:50:25.475Z,1.44
2018-01-23T01:52:55.360Z,1.43
2018-01-23T01:55:25.234Z,1.48
2018-01-23T01:57:55.172Z,1.45
2018-01-23T02:00:25.716Z,1.39
2018-01-23T02:02:55.362Z,1.47
2018-01-23T02:05:25.294Z,1.49
2018-01-23T02:07:55.572Z,1.53
2018-01-23T02:10:25.550Z,1.66
2018-01-23T02:12:55.532Z,1.72
2018-01-23T02:15:25.717Z,1.65
2018-01-23T02:17:55.721Z,1.66
2018-01-23T02:20:25.599Z,1.67
2018-01-23T02:22:55.544Z,1.68
2018-01-23T02:25:25.646Z,1.63
2018-01-23T02:27:55.580Z,1.63
2018-01-23T02:30:25.457Z,1.68
2018-01-23T02:32:55.440Z,1.75
2018-01-23T02:35:25.482Z,1.81
2018-01-23T02:37:55.986Z,1.86
2018-01-23T02:40:26.110Z,1.88
2018-01-23T02:42:56.021Z,1.91
2018-01-23T02:45:26.000Z,1.90
2018-01-23T02:47:55.887Z,1.89
2018-01-23T02:50:25.969Z,1.89
2018-01-23T02:52:55.901Z,1.91
2018-01-23T02:55:25.835Z,1.93
2018-01-23T02:57:55.714Z,1.92
2018-01-23T03:00:25.590Z,1.91
2018-01-23T03:02:55.679Z,2.00
2018-01-23T03:05:25.582Z,2.01
2018-01-23T03:07:55.492Z,1.98
2018-01-23T03:10:25.456Z,1.95
2018-01-23T03:12:55.367Z,1.94
2018-01-23T03:15:25.269Z,1.90
2018-01-23T03:17:55.331Z,1.88
2018-01-23T03:20:25.216Z,1.93
2018-01-23T03:22:55.215Z,1.92
2018-01-23T03:25:25.416Z,1.98
2018-01-23T03:27:55.362Z,1.99
2018-01-23T03:30:25.212Z,2.08
2018-01-23T03:32:55.144Z,2.09
2018-01-23T03:35:25.032Z,2.10
2018-01-23T03:37:54.920Z,2.08
2018-01-23T03:40:24.818Z,2.03
2018-01-23T03:42:54.883Z,2.09
2018-01-23T03:45:24.894Z,2.08
2018-01-23T03:47:54.915Z,2.05
2018-01-23T03:50:24.745Z,1.96
2018-01-23T03:52:54.684Z,1.89
2018-01-23T03:55:24.565Z,1.96
2018-01-23T03:57:54.472Z,1.98
2018-01-23T04:00:24.365Z,1.89
2018-01-23T04:02:54.398Z,1.84
2018-01-23T04:05:24.557Z,1.82
2018-01-23T04:07:54.588Z,1.80
2018-01-23T04:10:24.461Z,1.81
2018-01-23T04:12:54.278Z,1.92
2018-01-23T04:15:24.187Z,1.89
2018-01-23T04:17:54.075Z,2.00
2018-01-23T04:20:24.105Z,2.06
2018-01-23T04:22:53.966Z,2.11
2018-01-23T04:25:24.048Z,2.17
2018-01-23T04:27:53.945Z,2.21
2018-01-23T04:30:23.874Z,2.15
2018-01-23T04:32:53.796Z,2.17
2018-01-23T04:35:23.730Z,2.18
2018-01-23T04:37:53.729Z,2.08
2018-01-23T04:40:31.569Z,1.90
2018-01-23T04:43:02.079Z,1.81
2018-01-23T04:45:32.194Z,1.87
2018-01-23T04:48:02.544Z,1.87
2018-01-23T04:50:32.558Z,1.87
2018-01-23T04:53:02.605Z,1.82
2018-01-23T04:55:32.572Z,1.93
2018-01-23T04:58:02.576Z,1.98
2018-01-23T05:00:32.586Z,2.02
2018-01-23T05:03:02.464Z,2.04
2018-01-23T05:05:32.371Z,2.02
2018-01-23T05:08:02.325Z,1.96
2018-01-23T05:10:32.291Z,1.94
2018-01-23T05:13:02.142Z,1.94
2018-01-23T05:15:32.445Z,2.01
2018-01-23T05:18:02.403Z,2.00
2018-01-23T05:20:32.257Z,2.08
2018-01-23T05:23:02.182Z,2.09
2018-01-23T05:25:32.240Z,2.25
2018-01-23T05:28:02.142Z,2.36
2018-01-23T05:30:32.331Z,2.41
2018-01-23T05:33:02.230Z,2.45
2018-01-23T05:35:42.482Z,2.43
2018-01-23T05:38:12.369Z,2.40
2018-01-23T05:40:42.477Z,2.36
2018-01-23T05:43:13.091Z,2.34
2018-01-23T05:45:43.743Z,2.35
2018-01-23T05:48:13.748Z,2.37
2018-01-23T05:50:43.714Z,2.39
2018-01-23T05:53:13.831Z,2.45
2018-01-23T05:55:43.736Z,2.52
2018-01-23T05:58:13.636Z,2.56
2018-01-23T06:00:43.614Z,2.52
2018-01-23T06:03:13.640Z,2.59
2018-01-23T06:05:43.577Z,2.65
2018-01-23T06:08:13.525Z,2.65
2018-01-23T06:10:43.955Z,2.68
2018-01-23T06:13:13.993Z,2.65
2018-01-23T06:15:44.676Z,2.69
2018-01-23T06:18:14.774Z,2.68
2018-01-23T06:20:46.542Z,2.67
2018-01-23T06:23:16.899Z,2.68
2018-01-23T06:25:46.891Z,2.68
2018-01-23T06:28:16.885Z,2.65
2018-01-23T06:30:46.924Z,2.58
2018-01-23T06:33:16.729Z,2.52
2018-01-23T06:35:46.921Z,2.50
2018-01-23T06:38:16.753Z,2.52
2018-01-23T06:40:46.512Z,2.48
2018-01-23T06:43:16.460Z,2.52
2018-01-23T06:45:46.394Z,2.51
2018-01-23T06:48:16.372Z,2.60
2018-01-23T06:50:46.445Z,2.65
2018-01-23T06:53:16.329Z,2.77
2018-01-23T06:55:46.145Z,2.73
2018-01-23T06:58:16.053Z,2.96
2018-01-23T07:00:45.933Z,3.02
2018-01-23T07:03:15.786Z,3.04
2018-01-23T07:05:45.888Z,3.05
2018-01-23T07:08:15.819Z,3.06
2018-01-23T07:10:45.700Z,3.10
2018-01-23T07:13:15.578Z,3.09
2018-01-23T07:15:45.590Z,3.12
2018-01-23T07:18:15.489Z,3.12
2018-01-23T07:20:45.548Z,3.15
2018-01-23T07:23:15.579Z,3.18
2018-01-23T07:25:45.576Z,3.14
2018-01-23T07:28:15.962Z,3.12
2018-01-23T07:30:45.950Z,3.09
2018-01-23T07:33:15.916Z,3.05
2018-01-23T07:35:45.944Z,3.05
2018-01-23T07:38:15.980Z,3.02
2018-01-23T07:40:45.957Z,3.01
2018-01-23T07:43:15.827Z,3.00
2018-01-23T07:45:46.141Z,3.00
2018-01-23T07:48:16.002Z,3.07
2018-01-23T07:50:46.649Z,3.11
2018-01-23T07:53:20.759Z,3.11
2018-01-23T07:55:51.066Z,3.15
2018-01-23T07:58:21.026Z,3.19
2018-01-23T08:00:50.901Z,3.17
2018-01-23T08:03:21.247Z,3.18
2018-01-23T08:05:51.522Z,3.27
2018-01-23T08:08:21.531Z,3.29
2018-01-23T08:10:52.581Z,3.34
2018-01-23T08:13:22.553Z,3.39
2018-01-23T08:15:52.690Z,3.39
2018-01-23T08:18:22.993Z,3.51
2018-01-23T08:20:53.060Z,3.61
2018-01-23T08:23:23.149Z,3.66
2018-01-23T08:25:53.234Z,3.74
2018-01-23T08:28:23.186Z,3.85
2018-01-23T08:30:53.153Z,3.85
2018-01-23T08:33:23.037Z,4.02
2018-01-23T08:35:53.127Z,3.97
2018-01-23T08:38:22.994Z,4.00
2018-01-23T08:40:53.762Z,4.02
2018-01-23T08:43:23.720Z,4.09
2018-01-23T08:45:54.018Z,4.05
2018-01-23T08:48:24.048Z,4.06
2018-01-23T08:50:53.985Z,4.09
2018-01-23T08:53:23.886Z,4.14
2018-01-23T08:55:53.984Z,4.17
2018-01-23T08:58:23.669Z,4.22
2018-01-23T09:00:55.564Z,4.28
2018-01-23T09:03:25.318Z,4.42
2018-01-23T09:05:55.237Z,4.49
2018-01-23T09:08:25.365Z,4.52
2018-01-23T09:10:55.408Z,4.92
2018-01-23T09:13:26.990Z,5.16
2018-01-23T09:18:31.415Z,5.88
2018-01-23T09:26:13.167Z,6.60
2018-01-23T09:28:45.172Z,7.30
2018-01-23T09:31:15.630Z,8.42
2018-01-23T09:33:46.586Z,9.24
2018-01-23T09:36:16.676Z,10.70
2018-01-23T09:38:46.858Z,11.62
2018-01-23T09:41:16.874Z,12.22
2018-01-23T09:43:47.064Z,12.08
2018-01-23T09:46:17.294Z,11.51
2018-01-23T09:48:47.155Z,10.16
2018-01-23T09:51:17.897Z,8.86
2018-01-23T09:53:52.173Z,9.56
2018-01-23T09:56:22.451Z,9.22
2018-01-23T09:58:52.415Z,8.58
2018-01-23T10:01:22.264Z,8.77
2018-01-23T10:03:52.214Z,8.80
2018-01-23T10:06:22.195Z,8.18
2018-01-23T10:08:53.248Z,8.14
2018-01-23T10:11:24.198Z,8.11
2018-01-23T10:13:54.974Z,8.63
2018-01-23T10:16:26.158Z,8.60
2018-01-23T10:18:56.213Z,8.45
2018-01-23T10:21:26.160Z,9.07
2018-01-23T10:23:55.863Z,8.91
2018-01-23T10:26:25.818Z,9.10
2018-01-23T10:28:55.388Z,9.35
2018-01-23T10:31:25.347Z,9.54
2018-01-23T10:33:55.277Z,9.97
2018-01-23T10:36:25.139Z,9.77
2018-01-23T10:38:55.119Z,9.27
2018-01-23T10:41:25.878Z,9.44
2018-01-23T10:43:56.580Z,9.07
2018-01-23T10:46:26.534Z,8.56
2018-01-23T10:48:56.786Z,8.53
2018-01-23T10:51:26.868Z,8.16
2018-01-23T10:53:56.738Z,7.79
2018-01-23T10:56:26.921Z,7.84
2018-01-23T10:58:57.249Z,7.67
2018-01-23T11:01:32.634Z,7.62
2018-01-23T11:04:03.680Z,7.62
2018-01-23T11:06:33.961Z,7.46
2018-01-23T11:09:03.492Z,7.31
2018-01-23T11:11:33.223Z,7.29
2018-01-23T11:14:03.269Z,7.14
2018-01-23T11:16:34.909Z,7.41
2018-01-23T11:19:14.406Z,7.00
2018-01-23T11:24:19.631Z,6.88
2018-01-23T11:26:49.826Z,6.70
2018-01-23T11:29:19.785Z,6.68
2018-01-23T11:31:49.808Z,6.67
2018-01-23T11:37:05.514Z,6.52
2018-01-23T11:39:35.861Z,6.41
2018-01-23T11:42:05.680Z,6.39
2018-01-23T11:44:35.605Z,6.32
2018-01-23T11:47:06.426Z,6.20
2018-01-23T11:49:36.388Z,6.15
2018-01-23T11:52:06.403Z,6.25
2018-01-23T11:57:21.150Z,6.07
2018-01-23T11:59:51.599Z,6.01
2018-01-23T12:02:21.504Z,5.97
2018-01-23T12:04:53.323Z,5.81
2018-01-23T12:07:24.775Z,5.68
2018-01-23T12:09:58.923Z,5.69
2018-01-23T12:12:28.964Z,5.70
2018-01-23T12:14:58.945Z,5.69
2018-01-23T12:17:29.123Z,5.58
2018-01-23T12:20:02.710Z,5.62
2018-01-23T12:22:34.393Z,5.53
2018-01-23T12:25:03.821Z,5.58
2018-01-23T12:27:35.387Z,5.69
2018-01-23T12:35:31.761Z,5.88
2018-01-23T12:38:03.996Z,5.83
2018-01-23T12:40:37.110Z,5.73
2018-01-23T12:43:17.469Z,5.58
2018-01-23T12:50:59.315Z,5.39
2018-01-23T12:53:30.121Z,5.30
2018-01-23T12:58:39.028Z,5.36
2018-01-23T13:01:09.138Z,5.32
2018-01-23T13:03:39.067Z,5.39
2018-01-23T13:06:08.957Z,5.39
2018-01-23T13:08:39.066Z,5.28
2018-01-23T13:11:10.174Z,5.41
2018-01-23T13:13:43.761Z,5.47
2018-01-23T13:16:14.078Z,5.55
2018-01-23T13:18:44.516Z,5.47
2018-01-23T13:21:15.392Z,5.57
2018-01-23T13:23:45.124Z,5.57
2018-01-23T13:26:16.711Z,5.63
2018-01-23T13:28:47.328Z,5.57
2018-01-23T13:31:20.114Z,5.74
2018-01-23T13:39:03.710Z,5.61
2018-01-23T13:41:35.500Z,5.53
2018-01-23T13:44:06.198Z,5.54
2018-01-23T13:46:38.602Z,5.40
2018-01-23T13:49:08.438Z,5.38
2018-01-23T13:51:47.571Z,5.32
2018-01-23T13:54:17.622Z,5.35
2018-01-23T13:56:47.518Z,5.26
2018-01-23T13:59:23.406Z,5.38
2018-01-23T14:04:35.631Z,5.39
2018-01-23T14:07:05.998Z,5.37
2018-01-23T14:09:36.426Z,5.44
2018-01-23T14:15:29.503Z,5.32
2018-01-23T14:17:59.452Z,5.38
2018-01-23T14:25:38.020Z,5.45
2018-01-23T14:28:09.154Z,5.44
2018-01-23T14:30:38.839Z,5.51
2018-01-23T14:33:10.350Z,5.46
2018-01-23T14:35:40.654Z,5.43
2018-01-23T14:38:11.697Z,5.32
2018-01-23T14:40:41.744Z,5.25
2018-01-23T14:43:11.773Z,5.23
2018-01-23T14:48:17.229Z,5.15
2018-01-23T14:56:05.843Z,5.37
2018-01-23T15:01:25.765Z,5.18
2018-01-23T15:03:57.897Z,5.19
2018-01-23T15:06:27.871Z,5.15
2018-01-23T15:08:58.146Z,5.21
2018-01-23T15:11:28.414Z,5.24
2018-01-23T15:13:58.381Z,5.23
2018-01-23T15:16:28.259Z,5.19
2018-01-23T15:19:07.246Z,5.10
2018-01-23T15:21:37.282Z,5.10
2018-01-23T15:24:07.226Z,5.08
2018-01-23T15:26:40.106Z,5.06
2018-01-23T15:29:11.863Z,5.06
2018-01-23T15:31:41.875Z,5.01
2018-01-23T15:34:11.773Z,5.04
2018-01-23T15:36:41.810Z,4.94
2018-01-23T15:39:11.744Z,4.90
2018-01-23T15:44:15.494Z,4.82
2018-01-23T15:46:54.704Z,4.90
2018-01-23T15:49:24.684Z,4.92
2018-01-23T15:51:55.517Z,5.01
2018-01-23T15:54:25.584Z,4.97
2018-01-23T15:57:02.769Z,4.87
2018-01-23T16:02:07.355Z,4.81
2018-01-23T16:04:37.246Z,4.76
2018-01-23T16:07:07.222Z,4.80
2018-01-23T16:09:36.875Z,4.72
2018-01-23T16:12:07.474Z,4.67
2018-01-23T16:14:37.355Z,4.62
2018-01-23T16:17:07.284Z,4.54
2018-01-23T16:22:12.804Z,4.50
2018-01-23T16:24:42.685Z,4.47
2018-01-23T16:27:12.303Z,4.40
2018-01-23T16:32:47.243Z,4.35
2018-01-23T16:37:56.468Z,4.29
2018-01-23T16:40:30.377Z,4.35
2018-01-23T16:45:34.237Z,4.22
2018-01-23T16:48:12.274Z,4.10
2018-01-23T16:50:42.281Z,3.98
2018-01-23T16:53:12.521Z,3.86
2018-01-23T16:55:46.648Z,3.76
2018-01-23T16:58:16.727Z,3.71
2018-01-23T17:00:46.680Z,3.64
2018-01-23T17:03:16.698Z,3.63
2018-01-23T17:05:46.564Z,3.51
2018-01-23T17:08:16.704Z,3.45
2018-01-23T17:13:21.797Z,3.42
2018-01-23T17:15:51.432Z,3.56
2018-01-23T17:18:21.764Z,3.52
2018-01-23T17:23:52.076Z,3.58
2018-01-23T17:26:22.263Z,3.56
2018-01-23T17:28:52.446Z,3.58
2018-01-23T17:31:22.392Z,3.68
2018-01-23T17:33:52.394Z,3.92
2018-01-23T17:36:22.396Z,3.82
2018-01-23T17:38:52.364Z,3.78
2018-01-23T17:41:22.350Z,3.73
2018-01-23T17:43:52.246Z,3.75
2018-01-23T17:46:22.270Z,3.86
2018-01-23T17:48:52.256Z,3.80
2018-01-23T17:51:22.474Z,3.80
2018-01-23T17:53:52.606Z,3.77
2018-01-23T17:56:22.634Z,3.75
2018-01-23T17:58:53.355Z,3.84
2018-01-23T18:01:23.874Z,3.85
2018-01-23T18:03:53.891Z,3.79
2018-01-23T18:06:23.931Z,3.77
2018-01-23T18:08:53.876Z,3.76
2018-01-23T18:11:23.837Z,3.76
2018-01-23T18:13:53.870Z,3.75
2018-01-23T18:16:23.880Z,3.74
2018-01-23T18:18:53.694Z,3.76
2018-01-23T18:21:23.681Z,3.74
2018-01-23T18:23:53.669Z,3.72
2018-01-23T18:26:23.877Z,3.66
2018-01-23T18:28:53.790Z,3.65
2018-01-23T18:31:23.659Z,3.63
2018-01-23T18:33:53.418Z,3.59
2018-01-23T18:36:23.335Z,3.60
2018-01-23T18:38:53.261Z,3.54
2018-01-23T18:41:23.202Z,3.52
2018-01-23T18:43:53.284Z,3.47
2018-01-23T18:46:23.153Z,3.42
2018-01-23T18:48:54.246Z,3.40
2018-01-23T18:51:24.727Z,3.39
2018-01-23T18:53:54.565Z,3.33
2018-01-23T18:56:25.312Z,3.26
2018-01-23T18:58:55.246Z,3.19
2018-01-23T19:01:25.713Z,3.15
2018-01-23T19:03:55.909Z,3.14
2018-01-23T19:06:25.792Z,3.08
2018-01-23T19:08:55.758Z,3.04
2018-01-23T19:11:25.730Z,3.01
2018-01-23T19:13:55.692Z,2.98
2018-01-23T19:16:25.604Z,3.00
2018-01-23T19:18:55.777Z,3.01
2018-01-23T19:21:25.855Z,2.97
2018-01-23T19:23:55.796Z,2.93
2018-01-23T19:26:25.786Z,2.89
2018-01-23T19:28:55.679Z,2.90
2018-01-23T19:31:25.353Z,2.87
2018-01-23T19:33:55.392Z,2.83
2018-01-23T19:36:25.784Z,2.82
2018-01-23T19:38:55.627Z,2.80
2018-01-23T19:41:25.622Z,2.86
2018-01-23T19:43:55.570Z,2.90
2018-01-23T19:46:25.704Z,2.90
2018-01-23T19:48:55.682Z,2.92
2018-01-23T19:51:25.682Z,2.95
2018-01-23T19:53:55.711Z,3.14
2018-01-23T19:56:25.669Z,3.09
2018-01-23T19:58:55.750Z,3.05
2018-01-23T20:01:25.865Z,3.05
2018-01-23T20:03:57.330Z,3.33
2018-01-23T20:06:27.398Z,3.27
2018-01-23T20:08:57.274Z,3.21
2018-01-23T20:11:27.226Z,3.26
2018-01-23T20:13:57.100Z,3.34
2018-01-23T20:17:02.109Z,3.45
2018-01-23T20:19:32.030Z,3.41
2018-01-23T20:22:02.324Z,3.39
2018-01-23T20:24:35.745Z,3.39
2018-01-23T20:27:06.727Z,3.41
2018-01-23T20:29:36.599Z,3.39
2018-01-23T20:32:07.929Z,3.41
2018-01-23T20:34:37.869Z,3.40
2018-01-23T20:37:07.791Z,3.40
2018-01-23T20:39:38.296Z,3.39
2018-01-23T20:42:08.373Z,3.58
2018-01-23T20:44:42.083Z,3.52
2018-01-23T20:47:12.559Z,3.42
2018-01-23T20:49:43.452Z,3.41
2018-01-23T20:52:14.288Z,3.44
2018-01-23T20:54:44.145Z,3.38
2018-01-23T20:57:14.214Z,3.30
2018-01-23T20:59:52.174Z,3.22
2018-01-23T21:02:24.332Z,3.20
2018-01-23T21:04:54.531Z,3.12
2018-01-23T21:07:24.834Z,3.09
2018-01-23T21:09:54.828Z,3.03
2018-01-23T21:12:25.380Z,2.99
2018-01-23T21:14:55.215Z,2.98
2018-01-23T21:17:28.102Z,2.91
2018-01-23T21:20:01.497Z,2.86
2018-01-23T21:22:31.316Z,2.81
2018-01-23T21:25:01.309Z,2.85
2018-01-23T21:27:31.903Z,2.83
2018-01-23T21:30:01.870Z,2.91
2018-01-23T21:32:32.038Z,2.89
2018-01-23T21:35:01.986Z,2.86
2018-01-23T21:37:32.174Z,2.97
2018-01-23T21:40:02.059Z,2.98
2018-01-23T21:42:31.997Z,2.87
2018-01-23T21:45:01.938Z,2.85
2018-01-23T21:47:31.991Z,2.83
2018-01-23T21:50:01.585Z,2.81
2018-01-23T21:52:32.268Z,2.85
2018-01-23T21:55:03.107Z,2.87
2018-01-23T21:57:33.116Z,2.87
2018-01-23T22:00:03.350Z,2.86
2018-01-23T22:02:34.160Z,2.83
2018-01-23T22:05:04.056Z,2.79
2018-01-23T22:07:33.944Z,2.82
2018-01-23T22:10:03.854Z,2.84
2018-01-23T22:12:33.785Z,2.83
2018-01-23T22:15:03.825Z,2.84
2018-01-23T22:17:33.770Z,2.86
2018-01-23T22:20:03.953Z,2.86
2018-01-23T22:22:34.058Z,2.87
2018-01-23T22:25:04.877Z,2.86
2018-01-23T22:27:35.718Z,2.84
2018-01-23T22:30:05.446Z,2.87
2018-01-23T22:32:35.374Z,2.91
2018-01-23T22:35:05.297Z,2.89
2018-01-23T22:37:35.390Z,2.91
2018-01-23T22:40:05.168Z,2.89
2018-01-23T22:42:35.260Z,2.89
2018-01-23T22:45:05.156Z,2.96
2018-01-23T22:47:35.101Z,3.10
2018-01-23T22:50:04.978Z,3.14
2018-01-23T22:52:35.273Z,3.10
2018-01-23T22:55:06.214Z,3.03
2018-01-23T22:57:36.135Z,3.00
2018-01-23T23:00:09.245Z,2.96
2018-01-23T23:02:40.101Z,2.95
2018-01-23T23:05:10.062Z,2.96
2018-01-23T23:07:40.030Z,2.97
2018-01-23T23:10:10.144Z,2.98
2018-01-23T23:12:40.208Z,2.97
2018-01-23T23:15:10.120Z,2.97
2018-01-23T23:17:39.804Z,2.99
2018-01-23T23:20:09.866Z,2.98
2018-01-23T23:22:40.370Z,3.00
2018-01-23T23:25:10.355Z,2.95
2018-01-23T23:27:40.436Z,2.86
2018-01-23T23:30:10.654Z,2.87
2018-01-23T23:32:40.644Z,2.83
2018-01-23T23:35:10.557Z,2.82
2018-01-23T23:37:40.429Z,2.84
2018-01-23T23:40:11.570Z,2.84
2018-01-23T23:42:42.052Z,2.89
2018-01-23T23:45:11.935Z,2.89
2018-01-23T23:47:41.905Z,2.94
2018-01-23T23:50:11.870Z,2.96
2018-01-23T23:52:41.774Z,3.11
2018-01-23T23:55:11.780Z,3.09
2018-01-23T23:57:41.697Z,3.05
